createdAt,value
2018-04-08T00:01:38.339Z,100833
2018-04-08T00:04:06.496Z,100832
2018-04-08T00:06:35.390Z,100826
2018-04-08T00:09:04.313Z,100824
2018-04-08T00:11:32.469Z,100825
2018-04-08T00:14:00.624Z,100831
2018-04-08T00:16:29.548Z,100826
2018-04-08T00:18:57.673Z,100824
2018-04-08T00:21:25.837Z,100824
2018-04-08T00:23:53.973Z,100812
2018-04-08T00:26:22.108Z,100813
2018-04-08T00:28:51.037Z,100813
2018-04-08T00:31:19.171Z,100810
2018-04-08T00:33:48.072Z,100811
2018-04-08T00:36:16.224Z,100816
2018-04-08T00:38:45.182Z,100810
2018-04-08T00:41:13.316Z,100797
2018-04-08T00:43:41.443Z,100797
2018-04-08T00:46:09.592Z,100809
2018-04-08T00:48:37.719Z,100797
2018-04-08T00:51:06.679Z,100797
2018-04-08T00:53:34.811Z,100797
2018-04-08T00:56:02.959Z,100800
2018-04-08T00:58:31.102Z,100796
2018-04-08T01:00:59.244Z,100792
2018-04-08T01:03:27.391Z,100791
2018-04-08T01:05:55.539Z,100787
2018-04-08T01:08:24.439Z,100786
2018-04-08T01:10:52.576Z,100790
2018-04-08T01:13:20.739Z,100784
2018-04-08T01:15:48.871Z,100791
2018-04-08T01:18:17.023Z,100788
2018-04-08T01:20:45.171Z,100785
2018-04-08T01:23:13.333Z,100787
2018-04-08T01:25:41.456Z,100782
2018-04-08T01:28:09.619Z,100784
2018-04-08T01:30:38.539Z,100785
2018-04-08T01:33:06.659Z,100780
2018-04-08T01:35:35.591Z,100774
2018-04-08T01:38:03.719Z,100776
2018-04-08T01:40:32.611Z,100777
2018-04-08T01:43:01.538Z,100780
2018-04-08T01:45:29.723Z,100775
2018-04-08T01:47:57.872Z,100769
2018-04-08T01:50:26.000Z,100773
2018-04-08T01:52:54.152Z,100769
2018-04-08T01:55:22.312Z,100773
2018-04-08T01:57:50.455Z,100765
2018-04-08T02:00:18.662Z,100760
2018-04-08T02:02:46.820Z,100761
2018-04-08T02:05:14.951Z,100752
2018-04-08T02:07:43.876Z,100755
2018-04-08T02:10:12.008Z,100758
2018-04-08T02:12:40.136Z,100755
2018-04-08T02:15:08.302Z,100761
2018-04-08T02:17:36.472Z,100763
2018-04-08T02:20:04.620Z,100755
2018-04-08T02:22:33.512Z,100749
2018-04-08T02:25:01.684Z,100759
2018-04-08T02:27:29.824Z,100755
2018-04-08T02:29:57.952Z,100758
2018-04-08T02:32:26.100Z,100766
2018-04-08T02:34:54.276Z,100768
2018-04-08T02:37:22.399Z,100767
2018-04-08T02:39:50.532Z,100765
2018-04-08T02:42:18.713Z,100761
2018-04-08T02:44:46.853Z,100754
2018-04-08T02:47:15.783Z,100766
2018-04-08T02:49:43.925Z,100766
2018-04-08T02:52:12.061Z,100758
2018-04-08T02:54:40.244Z,100758
2018-04-08T02:57:08.384Z,100762
2018-04-08T02:59:36.584Z,100760
2018-04-08T03:02:04.713Z,100742
2018-04-08T03:04:32.859Z,100747
2018-04-08T03:07:01.755Z,100757
2018-04-08T03:09:29.907Z,100755
2018-04-08T03:11:58.822Z,100743
2018-04-08T03:14:26.952Z,100748
2018-04-08T03:16:55.122Z,100749
2018-04-08T03:19:23.256Z,100754
2018-04-08T03:21:51.382Z,100747
2018-04-08T03:24:20.324Z,100747
2018-04-08T03:26:48.451Z,100749
2018-04-08T03:29:17.382Z,100756
2018-04-08T03:31:45.537Z,100744
2018-04-08T03:34:13.669Z,100741
2018-04-08T03:36:41.847Z,100754
2018-04-08T03:39:09.986Z,100752
2018-04-08T03:41:38.116Z,100750
2018-04-08T03:44:06.264Z,100747
2018-04-08T03:46:34.411Z,100740
2018-04-08T03:49:02.544Z,100737
2018-04-08T03:51:30.707Z,100740
2018-04-08T03:53:58.835Z,100744
2018-04-08T03:56:27.020Z,100747
2018-04-08T03:58:55.147Z,100739
2018-04-08T04:01:23.274Z,100731
2018-04-08T04:03:52.192Z,100734
2018-04-08T04:06:20.314Z,100722
2018-04-08T04:08:48.467Z,100734
2018-04-08T04:11:17.046Z,100731
2018-04-08T04:13:45.218Z,100732
2018-04-08T04:16:13.362Z,100734
2018-04-08T04:18:59.355Z,100735
2018-04-08T04:21:45.481Z,100725
2018-04-08T04:27:23.979Z,100732
2018-04-08T04:29:52.128Z,100723
2018-04-08T04:32:21.027Z,100731
2018-04-08T04:34:49.952Z,100736
2018-04-08T04:37:18.083Z,100730
2018-04-08T04:39:47.001Z,100733
2018-04-08T04:42:15.131Z,100732
2018-04-08T04:44:44.063Z,100738
2018-04-08T04:47:12.203Z,100737
2018-04-08T04:49:40.378Z,100729
2018-04-08T04:52:09.295Z,100737
2018-04-08T04:54:37.439Z,100732
2018-04-08T04:57:06.335Z,100727
2018-04-08T04:59:35.253Z,100728
2018-04-08T05:02:03.384Z,100730
2018-04-08T05:04:32.246Z,100724
2018-04-08T05:07:00.375Z,100732
2018-04-08T05:09:28.544Z,100725
2018-04-08T05:11:57.436Z,100737
2018-04-08T05:14:25.568Z,100736
2018-04-08T05:16:53.711Z,100744
2018-04-08T05:19:21.851Z,100733
2018-04-08T05:21:50.049Z,100739
2018-04-08T05:24:18.178Z,100740
2018-04-08T05:26:46.403Z,100741
2018-04-08T05:29:14.554Z,100736
2018-04-08T05:31:42.693Z,100738
2018-04-08T05:34:10.824Z,100736
2018-04-08T05:36:38.980Z,100742
2018-04-08T05:39:07.158Z,100737
2018-04-08T05:41:35.292Z,100753
2018-04-08T05:44:04.187Z,100730
2018-04-08T05:46:33.119Z,100740
2018-04-08T05:49:01.250Z,100727
2018-04-08T05:51:30.146Z,100741
2018-04-08T05:53:58.300Z,100725
2018-04-08T05:56:27.195Z,100742
2018-04-08T05:58:56.115Z,100730
2018-04-08T06:01:24.252Z,100734
2018-04-08T06:03:53.324Z,100725
2018-04-08T06:06:22.154Z,100719
2018-04-08T06:08:50.304Z,100726
2018-04-08T06:11:18.431Z,100738
2018-04-08T06:13:46.586Z,100728
2018-04-08T06:16:14.724Z,100721
2018-04-08T06:18:43.633Z,100729
2018-04-08T06:21:11.798Z,100725
2018-04-08T06:23:40.695Z,100712
2018-04-08T06:26:08.866Z,100721
2018-04-08T06:28:36.995Z,100716
2018-04-08T06:31:05.156Z,100726
2018-04-08T06:33:33.306Z,100714
2018-04-08T06:36:01.445Z,100718
2018-04-08T06:38:30.394Z,100718
2018-04-08T06:40:58.529Z,100721
2018-04-08T06:43:26.720Z,100722
2018-04-08T06:45:54.862Z,100713
2018-04-08T06:48:23.041Z,100723
2018-04-08T06:50:51.171Z,100714
2018-04-08T06:53:19.305Z,100708
2018-04-08T06:55:47.490Z,100721
2018-04-08T06:58:15.623Z,100722
2018-04-08T07:00:44.552Z,100725
2018-04-08T07:03:12.740Z,100720
2018-04-08T07:05:40.872Z,100708
2018-04-08T07:08:09.024Z,100715
2018-04-08T07:10:37.919Z,100732
2018-04-08T07:13:06.836Z,100713
2018-04-08T07:15:34.992Z,100704
2018-04-08T07:18:03.147Z,100707
2018-04-08T07:20:32.050Z,100703
2018-04-08T07:23:00.200Z,100703
2018-04-08T07:25:28.331Z,100703
2018-04-08T07:27:56.467Z,100700
2018-04-08T07:30:24.622Z,100706
2018-04-08T07:32:53.519Z,100710
2018-04-08T07:35:22.457Z,100696
2018-04-08T07:37:50.599Z,100699
2018-04-08T07:40:18.765Z,100700
2018-04-08T07:42:46.935Z,100695
2018-04-08T07:45:15.084Z,100711
2018-04-08T07:47:43.262Z,100704
2018-04-08T07:50:12.184Z,100697
2018-04-08T07:52:40.350Z,100710
2018-04-08T07:55:08.499Z,100701
2018-04-08T07:57:37.404Z,100698
2018-04-08T08:00:06.315Z,100701
2018-04-08T08:02:34.472Z,100693
2018-04-08T08:05:02.622Z,100703
2018-04-08T08:07:31.547Z,100685
2018-04-08T08:09:59.678Z,100698
2018-04-08T08:12:27.815Z,100681
2018-04-08T08:14:55.982Z,100680
2018-04-08T08:17:24.124Z,100703
2018-04-08T08:19:52.287Z,100716
2018-04-08T08:22:21.210Z,100715
2018-04-08T08:24:49.371Z,100696
2018-04-08T08:27:17.526Z,100690
2018-04-08T08:29:46.419Z,100701
2018-04-08T08:32:14.575Z,100675
2018-04-08T08:34:43.479Z,100692
2018-04-08T08:37:12.371Z,100687
2018-04-08T08:39:41.285Z,100683
2018-04-08T08:42:09.418Z,100684
2018-04-08T08:44:38.326Z,100681
2018-04-08T08:47:06.458Z,100698
2018-04-08T08:49:34.611Z,100670
2018-04-08T08:52:02.739Z,100672
2018-04-08T08:54:31.633Z,100675
2018-04-08T08:56:59.783Z,100669
2018-04-08T08:59:28.682Z,100662
2018-04-08T09:01:56.851Z,100667
2018-04-08T09:04:25.791Z,100674
2018-04-08T09:06:53.957Z,100661
2018-04-08T09:09:22.083Z,100667
2018-04-08T09:11:50.231Z,100663
2018-04-08T09:14:18.368Z,100663
2018-04-08T09:16:46.524Z,100655
2018-04-08T09:22:33.357Z,100672
2018-04-08T09:25:01.503Z,100669
2018-04-08T09:27:30.404Z,100672
2018-04-08T09:29:59.316Z,100679
2018-04-08T09:32:27.448Z,100664
2018-04-08T09:34:55.604Z,100660
2018-04-08T09:37:23.726Z,100644
2018-04-08T09:39:51.852Z,100658
2018-04-08T09:42:19.998Z,100660
2018-04-08T09:44:48.140Z,100640
2018-04-08T09:47:16.388Z,100655
2018-04-08T09:49:44.577Z,100628
2018-04-08T09:52:13.472Z,100654
2018-04-08T09:54:42.359Z,100652
2018-04-08T09:57:11.272Z,100629
2018-04-08T09:59:39.409Z,100631
2018-04-08T10:02:13.804Z,100635
2018-04-08T10:04:41.932Z,100625
2018-04-08T10:07:10.083Z,100630
2018-04-08T10:09:38.996Z,100619
2018-04-08T10:12:07.150Z,100621
2018-04-08T10:14:35.410Z,100640
2018-04-08T10:17:04.315Z,100611
2018-04-08T10:19:32.448Z,100623
2018-04-08T10:22:00.599Z,100611
2018-04-08T10:24:28.751Z,100624
2018-04-08T10:26:56.900Z,100615
2018-04-08T10:29:25.866Z,100593
2018-04-08T10:31:55.007Z,100596
2018-04-08T10:34:23.132Z,100603
2018-04-08T10:36:51.276Z,100602
2018-04-08T10:39:19.426Z,100591
2018-04-08T10:41:47.576Z,100596
2018-04-08T10:44:16.502Z,100603
2018-04-08T10:46:44.628Z,100597
2018-04-08T10:49:13.545Z,100597
2018-04-08T10:51:41.681Z,100581
2018-04-08T10:54:10.580Z,100578
2018-04-08T10:56:39.499Z,100586
2018-04-08T10:59:07.679Z,100564
2018-04-08T11:01:35.824Z,100573
2018-04-08T11:04:04.715Z,100575
2018-04-08T11:06:33.635Z,100575
2018-04-08T11:09:01.768Z,100570
2018-04-08T11:11:30.664Z,100575
2018-04-08T11:13:59.575Z,100577
2018-04-08T11:16:27.717Z,100578
2018-04-08T11:18:56.635Z,100568
2018-04-08T11:21:24.798Z,100568
2018-04-08T11:23:52.922Z,100576
2018-04-08T11:26:21.061Z,100573
2018-04-08T11:28:49.211Z,100571
2018-04-08T11:31:18.227Z,100573
2018-04-08T11:33:46.372Z,100569
2018-04-08T11:36:15.279Z,100557
2018-04-08T11:38:43.471Z,100568
2018-04-08T11:41:11.674Z,100576
2018-04-08T11:43:39.809Z,100561
2018-04-08T11:46:07.967Z,100569
2018-04-08T11:48:36.143Z,100566
2018-04-08T11:51:04.298Z,100544
2018-04-08T11:53:33.199Z,100560
2018-04-08T11:56:01.343Z,100558
2018-04-08T11:58:30.246Z,100571
2018-04-08T12:00:59.160Z,100572
2018-04-08T12:03:27.283Z,100559
2018-04-08T12:05:55.416Z,100567
2018-04-08T12:08:23.568Z,100546
2018-04-08T12:10:51.694Z,100552
2018-04-08T12:13:19.852Z,100538
2018-04-08T12:15:47.988Z,100544
2018-04-08T12:18:16.136Z,100548
2018-04-08T12:20:45.109Z,100536
2018-04-08T12:23:13.216Z,100540
2018-04-08T12:25:41.379Z,100547
2018-04-08T12:28:10.272Z,100543
2018-04-08T12:30:38.407Z,100524
2018-04-08T12:33:06.561Z,100543
2018-04-08T12:35:34.707Z,100530
2018-04-08T12:38:02.876Z,100538
2018-04-08T12:40:31.040Z,100526
2018-04-08T12:42:59.575Z,100537
2018-04-08T12:45:28.291Z,100520
2018-04-08T12:47:57.424Z,100518
2018-04-08T12:50:25.577Z,100514
2018-04-08T12:52:53.741Z,100532
2018-04-08T12:55:22.644Z,100511
2018-04-08T12:57:50.843Z,100511
2018-04-08T13:00:19.002Z,100526
2018-04-08T13:02:47.145Z,100513
2018-04-08T13:05:16.043Z,100503
2018-04-08T13:07:44.292Z,100520
2018-04-08T13:10:12.360Z,100507
2018-04-08T13:12:40.532Z,100509
2018-04-08T13:15:08.663Z,100516
2018-04-08T13:17:36.823Z,100519
2018-04-08T13:20:05.002Z,100501
2018-04-08T13:22:33.152Z,100497
2018-04-08T13:25:01.311Z,100505
2018-04-08T13:27:30.252Z,100493
2018-04-08T13:29:58.375Z,100504
2018-04-08T13:32:27.284Z,100519
2018-04-08T13:34:56.303Z,100504
2018-04-08T13:37:24.446Z,100507
2018-04-08T13:39:52.601Z,100489
2018-04-08T13:42:21.548Z,100480
2018-04-08T13:44:49.680Z,100486
2018-04-08T13:47:17.798Z,100483
2018-04-08T13:49:45.940Z,100475
2018-04-08T13:52:14.355Z,100467
2018-04-08T13:54:42.478Z,100476
2018-04-08T13:57:10.635Z,100472
2018-04-08T13:59:38.771Z,100468
2018-04-08T14:02:06.894Z,100464
2018-04-08T14:04:35.021Z,100466
2018-04-08T14:07:03.175Z,100465
2018-04-08T14:09:31.308Z,100454
2018-04-08T14:11:59.480Z,100472
2018-04-08T14:14:27.662Z,100454
2018-04-08T14:16:56.537Z,100457
2018-04-08T14:19:25.448Z,100455
2018-04-08T14:21:53.656Z,100456
2018-04-08T14:24:21.811Z,100458
2018-04-08T14:26:49.946Z,100449
2018-04-08T14:29:18.082Z,100448
2018-04-08T14:31:46.227Z,100458
2018-04-08T14:34:14.363Z,100443
2018-04-08T14:36:42.498Z,100445
2018-04-08T14:39:10.640Z,100438
2018-04-08T14:41:38.819Z,100448
2018-04-08T14:44:06.951Z,100445
2018-04-08T14:46:35.158Z,100448
2018-04-08T14:49:03.260Z,100439
2018-04-08T14:51:31.389Z,100429
2018-04-08T14:53:59.555Z,100429
2018-04-08T14:56:27.715Z,100426
2018-04-08T14:58:56.626Z,100432
2018-04-08T15:01:24.794Z,100426
2018-04-08T15:03:52.922Z,100421
2018-04-08T15:06:21.072Z,100425
2018-04-08T15:08:49.203Z,100430
2018-04-08T15:11:17.339Z,100425
2018-04-08T15:13:45.484Z,100422
2018-04-08T15:16:13.644Z,100423
2018-04-08T15:18:41.819Z,100418
2018-04-08T15:21:09.979Z,100417
2018-04-08T15:23:38.112Z,100416
2018-04-08T15:26:07.006Z,100416
2018-04-08T15:28:35.916Z,100412
2018-04-08T15:31:04.055Z,100415
2018-04-08T15:33:32.223Z,100403
2018-04-08T15:36:00.347Z,100407
2018-04-08T15:38:28.472Z,100409
2018-04-08T15:40:56.624Z,100404
2018-04-08T15:43:24.743Z,100404
2018-04-08T15:45:52.893Z,100399
2018-04-08T15:48:21.791Z,100410
2018-04-08T15:50:50.687Z,100398
2018-04-08T15:53:19.618Z,100390
2018-04-08T15:55:48.063Z,100405
2018-04-08T15:58:16.226Z,100391
2018-04-08T16:00:45.118Z,100391
2018-04-08T16:03:14.014Z,100410
2018-04-08T16:05:42.161Z,100400
2018-04-08T16:08:10.299Z,100392
2018-04-08T16:10:38.435Z,100395
2018-04-08T16:13:06.645Z,100393
2018-04-08T16:15:34.804Z,100393
2018-04-08T16:18:02.960Z,100402
2018-04-08T16:20:31.095Z,100395
2018-04-08T16:22:59.264Z,100398
2018-04-08T16:25:28.176Z,100394
2018-04-08T16:30:36.964Z,100392
2018-04-08T16:33:05.132Z,100385
2018-04-08T16:35:33.267Z,100379
2018-04-08T16:38:01.463Z,100383
2018-04-08T16:40:29.591Z,100383
2018-04-08T16:42:57.731Z,100381
2018-04-08T16:45:25.916Z,100387
2018-04-08T16:47:54.056Z,100379
2018-04-08T16:50:22.212Z,100377
2018-04-08T16:52:50.339Z,100376
2018-04-08T16:55:18.476Z,100375
2018-04-08T16:57:46.626Z,100374
2018-04-08T17:00:14.764Z,100373
2018-04-08T17:02:42.917Z,100363
2018-04-08T17:05:11.793Z,100371
2018-04-08T17:07:39.944Z,100368
2018-04-08T17:10:08.111Z,100374
2018-04-08T17:12:36.259Z,100362
2018-04-08T17:15:05.155Z,100370
2018-04-08T17:17:34.097Z,100367
2018-04-08T17:20:02.249Z,100367
2018-04-08T17:22:31.233Z,100371
2018-04-08T17:24:59.371Z,100365
2018-04-08T17:27:27.528Z,100365
2018-04-08T17:29:56.492Z,100364
2018-04-08T17:32:24.624Z,100360
2018-04-08T17:34:52.757Z,100363
2018-04-08T17:37:20.916Z,100365
2018-04-08T17:39:49.051Z,100375
2018-04-08T17:42:17.233Z,100370
2018-04-08T17:44:45.383Z,100373
2018-04-08T17:47:13.528Z,100372
2018-04-08T17:49:41.699Z,100371
2018-04-08T17:52:09.829Z,100373
2018-04-08T17:54:37.964Z,100372
2018-04-08T17:57:06.882Z,100373
2018-04-08T17:59:35.019Z,100366
2018-04-08T18:02:03.974Z,100370
2018-04-08T18:04:32.104Z,100372
2018-04-08T18:07:00.236Z,100376
2018-04-08T18:09:28.389Z,100374
2018-04-08T18:11:56.516Z,100379
2018-04-08T18:14:24.674Z,100373
2018-04-08T18:16:53.584Z,100377
2018-04-08T18:19:21.759Z,100376
2018-04-08T18:21:49.887Z,100384
2018-04-08T18:24:18.016Z,100386
2018-04-08T18:26:46.170Z,100388
2018-04-08T18:29:14.324Z,100382
2018-04-08T18:31:43.239Z,100375
2018-04-08T18:34:11.412Z,100387
2018-04-08T18:36:39.543Z,100379
2018-04-08T18:39:07.697Z,100380
2018-04-08T18:41:35.907Z,100374
2018-04-08T18:44:04.808Z,100381
2018-04-08T18:46:33.723Z,100384
2018-04-08T18:49:01.852Z,100387
2018-04-08T18:51:29.982Z,100369
2018-04-08T18:53:58.136Z,100375
2018-04-08T18:56:26.263Z,100374
2018-04-08T18:58:54.430Z,100371
2018-04-08T19:01:22.560Z,100375
2018-04-08T19:03:50.687Z,100372
2018-04-08T19:06:19.608Z,100376
2018-04-08T19:08:47.762Z,100378
2018-04-08T19:11:16.671Z,100373
2018-04-08T19:13:44.818Z,100370
2018-04-08T19:16:13.712Z,100370
2018-04-08T19:18:42.617Z,100365
2018-04-08T19:21:10.797Z,100357
2018-04-08T19:23:38.924Z,100354
2018-04-08T19:26:07.076Z,100348
2018-04-08T19:28:35.215Z,100355
2018-04-08T19:31:03.385Z,100350
2018-04-08T19:33:31.515Z,100352
2018-04-08T19:35:59.657Z,100353
2018-04-08T19:38:27.813Z,100348
2018-04-08T19:40:55.941Z,100349
2018-04-08T19:43:24.860Z,100347
2018-04-08T19:45:53.012Z,100350
2018-04-08T19:48:21.920Z,100348
2018-04-08T19:50:50.117Z,100357
2018-04-08T19:53:18.275Z,100353
2018-04-08T19:55:46.444Z,100336
2018-04-08T19:58:14.571Z,100324
2018-04-08T20:00:42.825Z,100338
2018-04-08T20:03:10.963Z,100322
2018-04-08T20:05:39.243Z,100319
2018-04-08T20:08:07.376Z,100324
2018-04-08T20:10:36.285Z,100320
2018-04-08T20:13:04.455Z,100312
2018-04-08T20:15:33.360Z,100318
2018-04-08T20:18:01.561Z,100312
2018-04-08T20:20:29.720Z,100319
2018-04-08T20:22:57.860Z,100306
2018-04-08T20:25:26.759Z,100309
2018-04-08T20:27:54.921Z,100297
2018-04-08T20:30:23.851Z,100308
2018-04-08T20:32:52.050Z,100307
2018-04-08T20:35:20.151Z,100302
2018-04-08T20:37:49.074Z,100303
2018-04-08T20:40:17.266Z,100305
2018-04-08T20:42:45.396Z,100305
2018-04-08T20:45:14.320Z,100304
2018-04-08T20:47:42.465Z,100306
2018-04-08T20:50:11.355Z,100313
2018-04-08T20:52:39.508Z,100305
2018-04-08T20:55:08.407Z,100305
2018-04-08T20:57:37.324Z,100303
2018-04-08T21:00:05.459Z,100303
2018-04-08T21:02:34.403Z,100299
2018-04-08T21:05:02.536Z,100300
2018-04-08T21:07:31.446Z,100297
2018-04-08T21:09:59.632Z,100311
2018-04-08T21:12:27.759Z,100310
2018-04-08T21:14:56.677Z,100316
2018-04-08T21:17:24.809Z,100302
2018-04-08T21:19:52.972Z,100302
2018-04-08T21:22:21.099Z,100301
2018-04-08T21:24:49.262Z,100308
2018-04-08T21:27:17.396Z,100296
2018-04-08T21:29:45.532Z,100307
2018-04-08T21:32:13.688Z,100304
2018-04-08T21:34:42.507Z,100298
2018-04-08T21:37:10.651Z,100309
2018-04-08T21:39:38.801Z,100310
2018-04-08T21:42:07.728Z,100314
2018-04-08T21:44:35.872Z,100308
2018-04-08T21:47:04.057Z,100310
2018-04-08T21:49:32.184Z,100308
2018-04-08T21:52:00.336Z,100304
2018-04-08T21:54:28.468Z,100305
2018-04-08T21:56:56.613Z,100306
2018-04-08T21:59:25.551Z,100310
2018-04-08T22:01:53.687Z,100314
2018-04-08T22:04:22.585Z,100310
2018-04-08T22:06:50.740Z,100309
2018-04-08T22:09:19.643Z,100314
2018-04-08T22:11:47.805Z,100308
2018-04-08T22:14:16.722Z,100311
2018-04-08T22:16:44.851Z,100315
2018-04-08T22:19:13.028Z,100314
2018-04-08T22:21:41.928Z,100316
2018-04-08T22:24:10.833Z,100316
2018-04-08T22:26:38.991Z,100310
2018-04-08T22:29:07.924Z,100302
2018-04-08T22:31:36.051Z,100305
2018-04-08T22:34:04.954Z,100306
2018-04-08T22:36:33.103Z,100300
2018-04-08T22:39:01.244Z,100298
2018-04-08T22:41:29.420Z,100304
2018-04-08T22:43:57.555Z,100295
2018-04-08T22:46:25.713Z,100297
2018-04-08T22:48:54.610Z,100298
2018-04-08T22:51:22.740Z,100296
2018-04-08T22:53:50.895Z,100296
2018-04-08T22:56:19.020Z,100296
2018-04-08T22:58:47.918Z,100289
2018-04-08T23:01:16.328Z,100287
2018-04-08T23:03:44.463Z,100281
2018-04-08T23:06:12.613Z,100279
2018-04-08T23:08:40.784Z,100273
2018-04-08T23:11:08.920Z,100271
2018-04-08T23:13:37.064Z,100259
2018-04-08T23:16:05.211Z,100257
2018-04-08T23:18:34.124Z,100244
2018-04-08T23:21:02.272Z,100239
2018-04-08T23:23:30.404Z,100236
2018-04-08T23:25:58.556Z,100235
2018-04-08T23:28:26.684Z,100243
2018-04-08T23:30:55.607Z,100251
2018-04-08T23:33:23.756Z,100250
2018-04-08T23:35:52.666Z,100246
2018-04-08T23:38:20.822Z,100242
2018-04-08T23:40:49.724Z,100238
2018-04-08T23:43:17.878Z,100233
2018-04-08T23:45:46.771Z,100224
2018-04-08T23:48:15.676Z,100233
2018-04-08T23:50:43.828Z,100229
2018-04-08T23:53:12.748Z,100233
2018-04-08T23:55:40.899Z,100230
2018-04-08T23:58:09.799Z,100225
